Hauptseite
METAR-TAF:

METAR-TAF

Flughäfen :

Tōkyō Heliport

Tokio Heliport, Japan

Breite: 35-38N, Länge: 139-51E, Höhe: 5 m

Beobachtung

Neuester Wetterbericht von vor 1 Stunde und 12 Minuten, um 04:00 UTC
Wind 3 kt aus Ost/Südost, variierte zwischen Ost/Nordost und Süd
Temperatur 27°C
Luftfeuchtigkeit 89%
Luftdruck 1013 hPa
Sichtweite 10 km oder mehr
Aufgelockert bewölkt in der Höhe von 3000 ft
Durchbrochene Bewölkung in der Höhe von 7000 ft

METAR: RJTI 140400Z 11003KT 070V170 9999 SCT030 BKN070 27/25 Q1013

Zeit: 14:12 (05:12 UTC)


TAF: fehlend

Wetterbeobachtungen und Prognosen von mehr als 4000 Flughäfen (METAR und TAF Bericht).

Die verfügbaren Stationen werden durch gelbe und rote Markierungen auf der Karte dargestellt.

Führen Sie die Maus auf sie, um den Namen der Station zu sehen.

Darauf klicken, um die Beobachtung von Wetterbeobachtungen und Prognosen zu sehen.

Um die Karte zu ändern : klicken Sie auf den grünen Tasten mit einem schwarzen Kreuz Zum Vergrößern, auf den grünen Button mit einem Gedankenstrich zu verkleinern, oder auf die grünen Pfeile für benachbarte Karten.


METAR-TAF: